Time;durP1;ratioP1;P1;durP2;ratioP2;P2;SDS_P1;SDS_P2;PMS_P1;PMS_P2;Temp;Humidity;BMP_temperature;BMP_pressure;BME280_temperature;BME280_humidity;BME280_pressure;Samples;Min_cycle;Max_cycle;Signal;HPM_P1;HPM_P2
2023/06/18 00:00:35;;;;;;;68.43;31.05;;;;;;;;;;4976338;28;20031;-75
2023/06/18 00:03:00;;;;;;;80.35;40.53;;;;;;;;;;4976731;28;20023;-76
2023/06/18 00:05:26;;;;;;;81.03;37.92;;;;;;;;;;4974907;28;20076;-74
2023/06/18 00:07:51;;;;;;;68.15;32.65;;;;;;;;;;4976632;28;20026;-73
2023/06/18 00:10:16;;;;;;;64.90;29.92;;;;;;;;;;4976775;28;20440;-72
2023/06/18 00:12:41;;;;;;;70.78;31.77;;;;;;;;;;4976917;28;20030;-73
2023/06/18 00:15:07;;;;;;;68.93;31.08;;;;;;;;;;4975578;28;20031;-73
2023/06/18 00:17:32;;;;;;;62.97;30.67;;;;;;;;;;4974369;28;20138;-73
2023/06/18 00:19:58;;;;;;;73.85;30.58;;;;;;;;;;4976071;28;20034;-73
2023/06/18 00:22:23;;;;;;;68.28;30.05;;;;;;;;;;4976194;28;20027;-73
2023/06/18 00:24:48;;;;;;;64.47;31.15;;;;;;;;;;4976317;28;20472;-73
2023/06/18 00:27:14;;;;;;;69.07;32.30;;;;;;;;;;4977025;28;20030;-73
2023/06/18 00:29:40;;;;;;;66.25;30.17;;;;;;;;;;4976414;28;20466;-73
2023/06/18 00:32:06;;;;;;;72.65;32.35;;;;;;;;;;4974932;28;20030;-73
2023/06/18 00:34:32;;;;;;;82.10;32.97;;;;;;;;;;4976564;28;20046;-72
2023/06/18 00:36:59;;;;;;;77.47;31.80;;;;;;;;;;4974707;28;20039;-72
2023/06/18 00:39:24;;;;;;;76.10;33.92;;;;;;;;;;4975779;28;20113;-72
2023/06/18 00:41:50;;;;;;;91.10;34.77;;;;;;;;;;4976349;28;20042;-73
2023/06/18 00:44:16;;;;;;;96.32;32.40;;;;;;;;;;4973701;28;20473;-72
2023/06/18 00:46:46;;;;;;;90.43;33.63;;;;;;;;;;4974788;28;20070;-72
2023/06/18 00:49:11;;;;;;;79.43;34.13;;;;;;;;;;4975962;28;20388;-72
2023/06/18 00:51:36;;;;;;;84.78;35.45;;;;;;;;;;4975681;28;20035;-72
2023/06/18 00:54:02;;;;;;;85.65;35.15;;;;;;;;;;4972973;28;20038;-72
2023/06/18 00:56:29;;;;;;;82.65;36.90;;;;;;;;;;4975161;28;20477;-72
2023/06/18 00:58:57;;;;;;;83.57;35.72;;;;;;;;;;4973561;28;20054;-73
2023/06/18 01:04:12;;;;;;;92.22;37.03;;;;;;;;;;4943478;29;20054;-69
2023/06/18 01:06:37;;;;;;;86.25;37.00;;;;;;;;;;4955160;29;20027;-69
2023/06/18 01:09:03;;;;;;;89.68;36.65;;;;;;;;;;4956287;29;20058;-68
2023/06/18 01:11:29;;;;;;;95.75;38.78;;;;;;;;;;4954081;29;20062;-68
2023/06/18 01:13:54;;;;;;;110.68;41.83;;;;;;;;;;4955769;29;20023;-69
2023/06/18 01:16:22;;;;;;;98.87;38.27;;;;;;;;;;4955597;29;20031;-68
2023/06/18 01:18:50;;;;;;;99.13;39.72;;;;;;;;;;4953928;29;20401;-68
2023/06/18 01:21:19;;;;;;;95.23;39.00;;;;;;;;;;4959877;28;20545;-68
2023/06/18 01:24:04;;;;;;;107.43;40.90;;;;;;;;;;4953887;29;20504;-68
2023/06/18 01:26:31;;;;;;;106.23;40.67;;;;;;;;;;4954523;29;20031;-68
2023/06/18 01:29:00;;;;;;;117.80;43.28;;;;;;;;;;4955934;29;20500;-68
2023/06/18 01:31:25;;;;;;;94.68;38.30;;;;;;;;;;4955883;29;20070;-68
2023/06/18 01:33:53;;;;;;;102.27;40.07;;;;;;;;;;4954813;29;20114;-69
2023/06/18 01:36:47;;;;;;;117.47;43.80;;;;;;;;;;4954611;29;20031;-68
2023/06/18 01:39:32;;;;;;;108.47;40.90;;;;;;;;;;4953585;29;20042;-68
2023/06/18 01:42:02;;;;;;;112.47;42.53;;;;;;;;;;4959701;28;20037;-68
2023/06/18 01:44:30;;;;;;;116.90;41.60;;;;;;;;;;4963304;28;20492;-68
2023/06/18 01:46:56;;;;;;;134.03;46.30;;;;;;;;;;4955936;29;20027;-69
2023/06/18 01:49:22;;;;;;;123.18;43.55;;;;;;;;;;4953811;29;20051;-69
2023/06/18 01:51:49;;;;;;;118.43;42.57;;;;;;;;;;4951994;29;20039;-68
2023/06/18 01:54:14;;;;;;;118.33;42.20;;;;;;;;;;4953410;28;20529;-69
2023/06/18 01:56:40;;;;;;;125.37;43.67;;;;;;;;;;4955099;29;20053;-68
2023/06/18 01:59:05;;;;;;;137.73;46.70;;;;;;;;;;4955310;29;20031;-68
2023/06/18 02:01:34;;;;;;;140.00;48.10;;;;;;;;;;4955656;29;20027;-69
2023/06/18 02:04:00;;;;;;;142.97;47.20;;;;;;;;;;4953607;29;20058;-68
2023/06/18 02:06:25;;;;;;;150.20;48.15;;;;;;;;;;4955433;29;20397;-68
2023/06/18 02:08:50;;;;;;;163.37;49.13;;;;;;;;;;4955481;29;20061;-69
2023/06/18 02:11:16;;;;;;;149.35;49.13;;;;;;;;;;4960526;28;20370;-69
2023/06/18 02:13:41;;;;;;;152.70;50.23;;;;;;;;;;4955164;29;20078;-68
2023/06/18 02:16:06;;;;;;;158.57;50.57;;;;;;;;;;4954970;29;20466;-69
2023/06/18 02:18:32;;;;;;;145.32;49.85;;;;;;;;;;4953603;29;20066;-69
2023/06/18 02:20:57;;;;;;;160.60;50.27;;;;;;;;;;4954353;29;20027;-68
2023/06/18 02:23:23;;;;;;;162.37;51.20;;;;;;;;;;4954731;29;20019;-69
2023/06/18 02:25:48;;;;;;;170.57;52.27;;;;;;;;;;4955375;29;20445;-69
2023/06/18 02:28:13;;;;;;;188.70;52.87;;;;;;;;;;4954157;29;20397;-69
2023/06/18 02:30:38;;;;;;;172.30;52.28;;;;;;;;;;4955009;29;20110;-69
2023/06/18 02:33:06;;;;;;;154.00;49.83;;;;;;;;;;4953990;29;20110;-70
2023/06/18 02:35:32;;;;;;;123.60;44.67;;;;;;;;;;4954792;29;20031;-69
2023/06/18 02:37:58;;;;;;;148.35;48.42;;;;;;;;;;4954366;29;20477;-69
2023/06/18 02:40:23;;;;;;;145.27;48.07;;;;;;;;;;4954973;29;20086;-69
2023/06/18 02:42:48;;;;;;;164.23;49.53;;;;;;;;;;4954258;29;20104;-69
2023/06/18 02:45:15;;;;;;;120.97;43.00;;;;;;;;;;4954302;29;20027;-68
2023/06/18 02:47:40;;;;;;;122.50;43.67;;;;;;;;;;4954863;29;20027;-69
2023/06/18 02:50:06;;;;;;;131.57;44.50;;;;;;;;;;4953043;29;20094;-68
2023/06/18 02:52:31;;;;;;;128.33;44.30;;;;;;;;;;4954472;29;20046;-62
2023/06/18 02:54:56;;;;;;;149.30;48.93;;;;;;;;;;4955252;29;20469;-68
2023/06/18 02:57:22;;;;;;;135.43;46.90;;;;;;;;;;4954689;29;20086;-69
2023/06/18 02:59:47;;;;;;;125.93;43.37;;;;;;;;;;4954068;29;20027;-69
2023/06/18 03:02:13;;;;;;;145.30;47.53;;;;;;;;;;4954707;29;20377;-69
2023/06/18 03:04:38;;;;;;;166.77;51.30;;;;;;;;;;4953608;29;20023;-69
2023/06/18 03:07:03;;;;;;;153.23;49.00;;;;;;;;;;4956512;28;20019;-69
2023/06/18 03:09:29;;;;;;;173.47;52.07;;;;;;;;;;4958538;29;20025;-68
2023/06/18 03:11:54;;;;;;;173.93;53.10;;;;;;;;;;4958828;29;20392;-69
2023/06/18 03:14:21;;;;;;;181.67;54.77;;;;;;;;;;4958670;29;20019;-69
2023/06/18 03:16:47;;;;;;;154.70;48.22;;;;;;;;;;4956572;29;20030;-69
2023/06/18 03:19:12;;;;;;;167.27;51.97;;;;;;;;;;4957450;29;20035;-69
2023/06/18 03:21:39;;;;;;;148.75;47.80;;;;;;;;;;4958602;29;20019;-68
2023/06/18 03:24:05;;;;;;;141.20;47.00;;;;;;;;;;4957722;28;20026;-68
2023/06/18 03:26:30;;;;;;;122.67;44.13;;;;;;;;;;4957455;28;20493;-68
2023/06/18 03:28:56;;;;;;;114.13;43.00;;;;;;;;;;4958469;29;20027;-69
2023/06/18 03:31:22;;;;;;;103.47;40.67;;;;;;;;;;4958113;29;20550;-69
2023/06/18 03:33:47;;;;;;;107.73;42.60;;;;;;;;;;4961699;28;20090;-69
2023/06/18 03:36:15;;;;;;;122.77;44.70;;;;;;;;;;4962582;28;20477;-68
2023/06/18 03:38:40;;;;;;;138.15;46.25;;;;;;;;;;4958027;29;20123;-69
2023/06/18 03:41:06;;;;;;;104.70;39.80;;;;;;;;;;4957758;29;20124;-68
2023/06/18 03:43:31;;;;;;;94.53;38.83;;;;;;;;;;4958225;29;20529;-69
2023/06/18 03:45:56;;;;;;;99.40;40.93;;;;;;;;;;4957996;29;20069;-69
2023/06/18 03:48:22;;;;;;;83.82;36.30;;;;;;;;;;4956103;29;20363;-68
2023/06/18 03:50:47;;;;;;;81.13;36.57;;;;;;;;;;4957132;29;20027;-68
2023/06/18 03:53:12;;;;;;;70.83;35.83;;;;;;;;;;4957966;29;20023;-68
2023/06/18 03:55:38;;;;;;;63.28;32.83;;;;;;;;;;4957668;29;20473;-68
2023/06/18 03:58:03;;;;;;;57.67;31.77;;;;;;;;;;4957800;29;20358;-68
2023/06/18 04:00:28;;;;;;;56.93;30.40;;;;;;;;;;4957909;29;20071;-69
2023/06/18 04:02:54;;;;;;;63.30;33.73;;;;;;;;;;4957476;29;20124;-68
2023/06/18 04:05:19;;;;;;;64.95;33.75;;;;;;;;;;4956094;29;20035;-69
2023/06/18 04:07:44;;;;;;;57.13;31.50;;;;;;;;;;4957766;29;20098;-68
2023/06/18 04:10:10;;;;;;;51.38;28.83;;;;;;;;;;4957446;29;20023;-68
2023/06/18 04:12:35;;;;;;;48.88;29.10;;;;;;;;;;4957396;29;20030;-68
2023/06/18 04:15:00;;;;;;;46.70;28.23;;;;;;;;;;4956475;29;20027;-68
2023/06/18 04:17:26;;;;;;;45.28;26.75;;;;;;;;;;4956958;28;20082;-68
2023/06/18 04:19:52;;;;;;;42.03;25.15;;;;;;;;;;4966074;28;20461;-68
2023/06/18 04:22:17;;;;;;;43.00;25.75;;;;;;;;;;4963683;28;20420;-68
2023/06/18 04:24:42;;;;;;;39.72;24.58;;;;;;;;;;4957160;29;20074;-68
2023/06/18 04:27:08;;;;;;;39.60;24.05;;;;;;;;;;4956990;29;20026;-69
2023/06/18 04:29:33;;;;;;;38.55;23.27;;;;;;;;;;4957328;29;20081;-68
2023/06/18 04:31:58;;;;;;;37.50;23.77;;;;;;;;;;4956224;29;20034;-69
2023/06/18 04:34:23;;;;;;;39.15;23.10;;;;;;;;;;4955492;29;20039;-68
2023/06/18 04:36:49;;;;;;;34.22;21.10;;;;;;;;;;4956924;29;20513;-69
2023/06/18 04:39:14;;;;;;;33.55;21.83;;;;;;;;;;4956838;29;20045;-68
2023/06/18 04:41:39;;;;;;;33.80;20.42;;;;;;;;;;4957209;29;20103;-69
2023/06/18 04:44:05;;;;;;;33.00;19.85;;;;;;;;;;4956760;29;20450;-69
2023/06/18 04:46:30;;;;;;;28.60;18.77;;;;;;;;;;4956385;29;20027;-69
2023/06/18 04:48:59;;;;;;;30.23;19.40;;;;;;;;;;4954337;29;20061;-68
2023/06/18 04:51:24;;;;;;;28.92;18.95;;;;;;;;;;4955470;29;20107;-68
2023/06/18 04:53:50;;;;;;;30.52;17.83;;;;;;;;;;4956949;29;20102;-68
2023/06/18 04:56:15;;;;;;;27.52;18.02;;;;;;;;;;4956866;29;20057;-68
2023/06/18 04:58:40;;;;;;;25.95;17.50;;;;;;;;;;4956531;29;20030;-67
2023/06/18 05:01:06;;;;;;;26.88;17.40;;;;;;;;;;4956522;29;20031;-66
2023/06/18 05:03:31;;;;;;;28.52;18.35;;;;;;;;;;4954547;29;20501;-66
2023/06/18 05:05:57;;;;;;;28.77;17.77;;;;;;;;;;4956414;29;20388;-67
2023/06/18 05:08:22;;;;;;;28.85;17.83;;;;;;;;;;4956354;29;20039;-66
2023/06/18 05:10:49;;;;;;;26.45;18.38;;;;;;;;;;4956262;29;20037;-66
2023/06/18 05:13:15;;;;;;;24.52;16.63;;;;;;;;;;4956312;29;20031;-66
2023/06/18 05:15:40;;;;;;;27.27;16.73;;;;;;;;;;4955695;28;20107;-67
2023/06/18 05:18:05;;;;;;;25.02;16.95;;;;;;;;;;4953606;29;20118;-67
2023/06/18 05:20:30;;;;;;;28.25;16.75;;;;;;;;;;4956434;29;20023;-66
2023/06/18 05:22:56;;;;;;;23.98;16.58;;;;;;;;;;4956051;29;20485;-67
2023/06/18 05:25:21;;;;;;;26.38;15.77;;;;;;;;;;4955237;29;20041;-66
2023/06/18 05:27:46;;;;;;;20.75;14.38;;;;;;;;;;4956223;29;20035;-67
2023/06/18 05:30:12;;;;;;;18.42;13.77;;;;;;;;;;4955575;28;20469;-66
2023/06/18 05:32:37;;;;;;;23.95;14.52;;;;;;;;;;4954846;29;20118;-66
2023/06/18 05:35:02;;;;;;;19.52;13.85;;;;;;;;;;4955658;29;20035;-66
2023/06/18 05:37:28;;;;;;;21.05;13.90;;;;;;;;;;4954940;29;20421;-67
2023/06/18 05:39:53;;;;;;;21.38;14.15;;;;;;;;;;4959731;28;20033;-67
2023/06/18 05:42:18;;;;;;;23.42;13.38;;;;;;;;;;4955799;29;20022;-66
2023/06/18 05:44:43;;;;;;;20.25;13.68;;;;;;;;;;4955721;29;20035;-66
2023/06/18 05:47:09;;;;;;;21.95;13.80;;;;;;;;;;4955678;29;20019;-66
2023/06/18 05:49:34;;;;;;;19.20;13.32;;;;;;;;;;4953012;29;20062;-66
2023/06/18 05:52:00;;;;;;;17.83;13.18;;;;;;;;;;4954921;29;20110;-66
2023/06/18 05:54:25;;;;;;;19.02;13.90;;;;;;;;;;4955811;29;20023;-66
2023/06/18 05:56:51;;;;;;;19.08;13.63;;;;;;;;;;4955806;29;20529;-66
2023/06/18 05:59:16;;;;;;;19.08;12.90;;;;;;;;;;4955359;29;20505;-66
2023/06/18 06:01:41;;;;;;;17.73;13.00;;;;;;;;;;4953136;29;20158;-66
2023/06/18 06:04:07;;;;;;;17.23;13.07;;;;;;;;;;4953854;29;20043;-67
2023/06/18 06:06:32;;;;;;;19.30;13.90;;;;;;;;;;4954917;29;20034;-67
2023/06/18 06:08:57;;;;;;;19.15;14.27;;;;;;;;;;4954137;29;20508;-67
2023/06/18 06:11:23;;;;;;;19.50;14.35;;;;;;;;;;4955345;29;20019;-66
2023/06/18 06:13:48;;;;;;;18.95;13.52;;;;;;;;;;4953793;29;20023;-66
2023/06/18 06:16:13;;;;;;;26.35;14.70;;;;;;;;;;4955198;29;20044;-67
2023/06/18 06:18:38;;;;;;;18.27;13.25;;;;;;;;;;4954086;29;20032;-66
2023/06/18 06:21:04;;;;;;;20.83;14.32;;;;;;;;;;4953923;29;20027;-66
2023/06/18 06:23:32;;;;;;;17.60;13.05;;;;;;;;;;4960159;28;20390;-66
2023/06/18 06:25:58;;;;;;;18.65;13.85;;;;;;;;;;4954750;29;20102;-66
2023/06/18 06:28:23;;;;;;;19.00;14.05;;;;;;;;;;4955377;29;20059;-66
2023/06/18 06:30:48;;;;;;;18.30;13.68;;;;;;;;;;4955177;29;20085;-66
2023/06/18 06:33:13;;;;;;;18.05;13.73;;;;;;;;;;4954075;29;20537;-66
2023/06/18 06:35:39;;;;;;;17.77;13.32;;;;;;;;;;4953911;29;20038;-66
2023/06/18 06:38:04;;;;;;;17.77;12.90;;;;;;;;;;4954229;29;20114;-66
2023/06/18 06:40:30;;;;;;;18.27;13.15;;;;;;;;;;4954282;29;20485;-66
2023/06/18 06:42:55;;;;;;;20.58;13.48;;;;;;;;;;4952569;29;20023;-67
2023/06/18 06:45:21;;;;;;;18.23;12.77;;;;;;;;;;4954778;29;20031;-67
2023/06/18 06:47:47;;;;;;;19.77;12.75;;;;;;;;;;4955078;29;20039;-67
2023/06/18 06:50:12;;;;;;;16.80;12.52;;;;;;;;;;4953042;29;20051;-66
2023/06/18 06:52:37;;;;;;;19.13;13.32;;;;;;;;;;4954618;29;20023;-67
2023/06/18 06:55:03;;;;;;;16.90;12.50;;;;;;;;;;4955094;29;20521;-68
2023/06/18 06:57:28;;;;;;;18.33;11.93;;;;;;;;;;4955051;29;20358;-67
2023/06/18 06:59:53;;;;;;;16.92;11.82;;;;;;;;;;4954652;29;20019;-68
2023/06/18 07:02:19;;;;;;;16.40;12.15;;;;;;;;;;4952558;29;20027;-67
2023/06/18 07:04:47;;;;;;;15.82;11.60;;;;;;;;;;4951908;29;20770;-68
2023/06/18 07:07:13;;;;;;;18.40;12.20;;;;;;;;;;4954294;29;20488;-67
2023/06/18 07:09:39;;;;;;;18.35;10.75;;;;;;;;;;4954563;29;20023;-67
2023/06/18 07:12:04;;;;;;;19.85;11.90;;;;;;;;;;4954299;29;20023;-67
2023/06/18 07:14:29;;;;;;;15.77;11.10;;;;;;;;;;4954472;29;20126;-67
2023/06/18 07:16:55;;;;;;;17.15;11.23;;;;;;;;;;4954048;28;20079;-68
2023/06/18 07:19:20;;;;;;;16.15;10.88;;;;;;;;;;4952507;29;20030;-68
2023/06/18 07:21:45;;;;;;;15.32;11.25;;;;;;;;;;4954600;29;20173;-68
2023/06/18 07:24:11;;;;;;;13.98;10.38;;;;;;;;;;4954357;29;20027;-68
2023/06/18 07:26:36;;;;;;;13.98;9.90;;;;;;;;;;4953359;29;20031;-68
2023/06/18 07:29:01;;;;;;;15.25;10.55;;;;;;;;;;4953216;29;20098;-67
2023/06/18 07:31:27;;;;;;;15.50;9.60;;;;;;;;;;4949825;29;20051;-68
2023/06/18 07:33:53;;;;;;;15.43;9.30;;;;;;;;;;4951296;29;20023;-67
2023/06/18 07:36:18;;;;;;;11.45;8.65;;;;;;;;;;4954308;29;20023;-68
2023/06/18 07:38:43;;;;;;;13.07;8.90;;;;;;;;;;4953746;29;20030;-69
2023/06/18 07:41:09;;;;;;;13.70;9.23;;;;;;;;;;4954066;29;20054;-68
2023/06/18 07:43:34;;;;;;;14.82;8.27;;;;;;;;;;4954329;29;20019;-68
2023/06/18 07:45:59;;;;;;;13.88;8.65;;;;;;;;;;4954635;29;20485;-68
2023/06/18 07:48:25;;;;;;;10.95;7.95;;;;;;;;;;4954638;28;20102;-68
2023/06/18 07:50:50;;;;;;;12.60;8.40;;;;;;;;;;4953668;29;20033;-68
2023/06/18 07:53:15;;;;;;;12.15;8.07;;;;;;;;;;4954293;28;20038;-69
2023/06/18 07:55:41;;;;;;;11.43;7.65;;;;;;;;;;4957969;29;20389;-68
2023/06/18 07:58:06;;;;;;;11.18;7.63;;;;;;;;;;4957586;29;20026;-69
2023/06/18 08:00:31;;;;;;;15.55;7.65;;;;;;;;;;4957653;29;20015;-69
2023/06/18 08:02:57;;;;;;;10.27;6.53;;;;;;;;;;4957344;29;20047;-69
2023/06/18 08:05:22;;;;;;;10.32;7.45;;;;;;;;;;4955783;29;20019;-70
2023/06/18 08:07:47;;;;;;;9.30;6.55;;;;;;;;;;4940342;29;20055;-70
2023/06/18 08:10:12;;;;;;;10.15;5.75;;;;;;;;;;4957413;29;20051;-70
2023/06/18 08:12:38;;;;;;;10.18;6.70;;;;;;;;;;4956029;29;20019;-71
2023/06/18 08:15:03;;;;;;;10.85;6.45;;;;;;;;;;4954892;29;20023;-70
2023/06/18 08:17:29;;;;;;;10.95;5.93;;;;;;;;;;4956843;29;20385;-70
2023/06/18 08:19:54;;;;;;;10.80;5.43;;;;;;;;;;4955455;29;20027;-70
2023/06/18 08:22:19;;;;;;;8.55;5.43;;;;;;;;;;4957213;29;20031;-70
2023/06/18 08:24:45;;;;;;;9.52;5.72;;;;;;;;;;4957356;29;20027;-69
2023/06/18 08:27:12;;;;;;;8.57;5.40;;;;;;;;;;4941768;28;20062;-68
2023/06/18 08:29:37;;;;;;;8.65;5.53;;;;;;;;;;4976261;28;20034;-67
2023/06/18 08:32:05;;;;;;;7.85;5.10;;;;;;;;;;4964331;28;20019;-67
2023/06/18 08:34:32;;;;;;;8.30;5.15;;;;;;;;;;4955744;29;20386;-68
2023/06/18 08:36:57;;;;;;;9.60;5.38;;;;;;;;;;4956980;29;20019;-67
2023/06/18 08:39:22;;;;;;;10.10;5.65;;;;;;;;;;4956756;29;20026;-68
2023/06/18 08:41:47;;;;;;;9.63;5.40;;;;;;;;;;4956923;29;20070;-67
2023/06/18 08:44:13;;;;;;;8.43;5.05;;;;;;;;;;4956438;29;20011;-67
2023/06/18 08:46:38;;;;;;;9.93;5.30;;;;;;;;;;4956711;29;20094;-69
2023/06/18 08:49:05;;;;;;;7.38;5.10;;;;;;;;;;4956759;29;20020;-69
2023/06/18 08:51:30;;;;;;;7.63;4.90;;;;;;;;;;4954513;29;20055;-68
2023/06/18 08:54:04;;;;;;;9.93;5.30;;;;;;;;;;4956697;29;20389;-69
2023/06/18 08:56:30;;;;;;;8.07;5.10;;;;;;;;;;4956615;29;20023;-70
2023/06/18 08:58:57;;;;;;;8.00;5.22;;;;;;;;;;4956755;29;20126;-69
2023/06/18 09:01:23;;;;;;;9.07;5.47;;;;;;;;;;4956483;29;20031;-69
2023/06/18 09:03:48;;;;;;;7.38;5.18;;;;;;;;;;4956032;28;20107;-69
2023/06/18 09:06:13;;;;;;;9.88;5.07;;;;;;;;;;4953192;29;20104;-69
2023/06/18 09:08:39;;;;;;;9.57;5.57;;;;;;;;;;4956201;29;20039;-69
2023/06/18 09:11:05;;;;;;;7.50;4.65;;;;;;;;;;4956397;29;20023;-69
2023/06/18 09:13:30;;;;;;;7.60;4.97;;;;;;;;;;4956321;29;20110;-68
2023/06/18 09:15:56;;;;;;;8.50;5.40;;;;;;;;;;4938151;29;20038;-69
2023/06/18 09:18:22;;;;;;;9.70;5.10;;;;;;;;;;4954496;29;20046;-69
2023/06/18 09:20:48;;;;;;;9.95;4.75;;;;;;;;;;4955595;28;20054;-68
2023/06/18 09:23:13;;;;;;;9.90;5.07;;;;;;;;;;4961863;28;20082;-68
2023/06/18 09:25:38;;;;;;;8.23;4.88;;;;;;;;;;4956327;29;20438;-69
2023/06/18 09:28:04;;;;;;;7.70;4.10;;;;;;;;;;4956194;29;20023;-69
2023/06/18 09:30:29;;;;;;;8.38;4.70;;;;;;;;;;4956255;29;20079;-69
2023/06/18 09:32:57;;;;;;;9.35;5.07;;;;;;;;;;4955857;29;20027;-69
2023/06/18 09:35:23;;;;;;;7.80;4.63;;;;;;;;;;4954057;29;20034;-69
2023/06/18 09:37:48;;;;;;;8.98;4.60;;;;;;;;;;4955718;29;20020;-68
2023/06/18 09:40:14;;;;;;;7.47;4.30;;;;;;;;;;4954660;29;20015;-69
2023/06/18 09:42:40;;;;;;;7.72;4.40;;;;;;;;;;4955754;29;20019;-68
2023/06/18 09:45:05;;;;;;;7.45;4.20;;;;;;;;;;4955907;29;20085;-68
2023/06/18 09:47:31;;;;;;;6.72;4.35;;;;;;;;;;4965839;28;20038;-67
2023/06/18 09:49:56;;;;;;;6.93;4.55;;;;;;;;;;4964423;28;20023;-68
2023/06/18 09:52:22;;;;;;;7.95;4.70;;;;;;;;;;4954868;29;20174;-69
2023/06/18 09:54:47;;;;;;;10.18;4.45;;;;;;;;;;4955874;29;20027;-69
2023/06/18 09:57:15;;;;;;;7.90;4.75;;;;;;;;;;4952518;29;20033;-69
2023/06/18 09:59:40;;;;;;;10.63;4.30;;;;;;;;;;4955726;29;20027;-70
2023/06/18 10:02:06;;;;;;;8.80;4.50;;;;;;;;;;4955122;29;20362;-70
2023/06/18 10:04:33;;;;;;;6.05;3.88;;;;;;;;;;4953839;29;20027;-70
2023/06/18 10:07:04;;;;;;;5.80;3.90;;;;;;;;;;4955351;29;20055;-70
2023/06/18 10:09:32;;;;;;;6.78;4.20;;;;;;;;;;4955597;29;20027;-71
2023/06/18 10:11:58;;;;;;;6.63;4.40;;;;;;;;;;4955344;29;20024;-71
2023/06/18 10:14:26;;;;;;;6.40;4.25;;;;;;;;;;4954544;29;20027;-71
2023/06/18 10:16:53;;;;;;;8.35;4.40;;;;;;;;;;4954809;28;20501;-71
2023/06/18 10:19:24;;;;;;;6.47;4.00;;;;;;;;;;4955109;29;20027;-70
2023/06/18 10:21:53;;;;;;;8.80;3.97;;;;;;;;;;4954721;29;20030;-69
2023/06/18 10:24:21;;;;;;;8.05;4.03;;;;;;;;;;4962532;28;20357;-71
2023/06/18 10:26:46;;;;;;;6.45;4.30;;;;;;;;;;4953818;28;20526;-69
2023/06/18 10:29:12;;;;;;;7.38;3.85;;;;;;;;;;4953483;29;20155;-68
2023/06/18 10:31:37;;;;;;;6.07;3.60;;;;;;;;;;4954874;29;20078;-68
2023/06/18 10:34:03;;;;;;;6.68;3.75;;;;;;;;;;4954686;29;20019;-70
2023/06/18 10:36:29;;;;;;;7.47;3.58;;;;;;;;;;4953270;29;20031;-71
2023/06/18 10:38:56;;;;;;;6.85;4.00;;;;;;;;;;4954518;29;20382;-71
2023/06/18 10:41:22;;;;;;;6.47;4.20;;;;;;;;;;4954768;29;20031;-71
2023/06/18 10:43:51;;;;;;;6.30;3.88;;;;;;;;;;4954882;29;20023;-71
2023/06/18 10:46:17;;;;;;;6.35;3.75;;;;;;;;;;4953729;29;20035;-70
2023/06/18 10:49:02;;;;;;;5.18;3.20;;;;;;;;;;4955188;29;20030;-70
2023/06/18 10:51:28;;;;;;;5.47;3.40;;;;;;;;;;4951624;29;20445;-69
2023/06/18 10:54:14;;;;;;;8.93;4.38;;;;;;;;;;4954292;29;20031;-69
2023/06/18 10:56:48;;;;;;;6.18;3.63;;;;;;;;;;4954732;29;20025;-70
2023/06/18 10:59:13;;;;;;;6.20;3.50;;;;;;;;;;4952246;29;20098;-70
2023/06/18 11:01:42;;;;;;;6.43;3.90;;;;;;;;;;4952434;29;20054;-71
2023/06/18 11:04:07;;;;;;;6.90;3.72;;;;;;;;;;4954409;29;20046;-72
2023/06/18 11:06:32;;;;;;;7.05;3.38;;;;;;;;;;4953191;29;20027;-72
2023/06/18 11:08:58;;;;;;;6.65;3.83;;;;;;;;;;4954947;29;20161;-73
2023/06/18 11:11:24;;;;;;;6.40;3.50;;;;;;;;;;4954602;29;20571;-72
2023/06/18 11:13:53;;;;;;;5.80;3.03;;;;;;;;;;4952729;29;20032;-72
2023/06/18 11:16:19;;;;;;;5.50;3.22;;;;;;;;;;4953782;29;20501;-74
2023/06/18 11:18:44;;;;;;;5.68;3.47;;;;;;;;;;4953892;29;20023;-72
2023/06/18 11:21:14;;;;;;;5.45;3.63;;;;;;;;;;4951538;29;20063;-73
2023/06/18 11:23:40;;;;;;;5.72;3.85;;;;;;;;;;4952885;29;20038;-71
2023/06/18 11:26:05;;;;;;;8.88;3.95;;;;;;;;;;4956806;28;20386;-71
2023/06/18 11:28:31;;;;;;;7.05;3.70;;;;;;;;;;4956544;28;20118;-72
2023/06/18 11:31:00;;;;;;;6.32;3.95;;;;;;;;;;4958424;29;20029;-73
2023/06/18 11:33:27;;;;;;;5.88;3.65;;;;;;;;;;4957330;29;20031;-72
2023/06/18 11:36:05;;;;;;;6.97;4.00;;;;;;;;;;4955682;29;20042;-72
2023/06/18 11:38:31;;;;;;;7.38;4.03;;;;;;;;;;4955342;29;20035;-71
2023/06/18 11:40:56;;;;;;;6.53;3.60;;;;;;;;;;4954764;29;20027;-72
2023/06/18 11:43:22;;;;;;;5.80;3.35;;;;;;;;;;4958231;29;20023;-72
2023/06/18 11:45:50;;;;;;;6.65;3.60;;;;;;;;;;4957980;29;20026;-71
2023/06/18 11:48:16;;;;;;;5.85;3.45;;;;;;;;;;4974100;28;20073;-72
2023/06/18 11:50:42;;;;;;;5.45;3.60;;;;;;;;;;4957809;28;20117;-72
2023/06/18 11:53:09;;;;;;;6.88;3.45;;;;;;;;;;4954852;29;20109;-71
2023/06/18 11:55:36;;;;;;;8.02;3.40;;;;;;;;;;4957868;29;20081;-71
2023/06/18 11:58:02;;;;;;;5.50;3.33;;;;;;;;;;4957924;29;20065;-72
2023/06/18 12:00:27;;;;;;;6.15;3.90;;;;;;;;;;4957887;29;20043;-72
2023/06/18 12:02:53;;;;;;;6.15;3.55;;;;;;;;;;4957555;29;20050;-74
2023/06/18 12:05:18;;;;;;;6.80;3.90;;;;;;;;;;4957528;29;20489;-72
2023/06/18 12:07:45;;;;;;;5.68;3.42;;;;;;;;;;4956456;29;20019;-72
2023/06/18 12:10:11;;;;;;;7.55;3.90;;;;;;;;;;4957400;29;20019;-72
2023/06/18 12:12:48;;;;;;;5.00;3.58;;;;;;;;;;4957728;29;20050;-72
2023/06/18 12:15:24;;;;;;;6.32;3.70;;;;;;;;;;4957729;29;20381;-72
2023/06/18 12:17:58;;;;;;;6.07;3.78;;;;;;;;;;4957311;29;20051;-73
2023/06/18 12:20:27;;;;;;;7.25;3.70;;;;;;;;;;4957283;29;20027;-72
2023/06/18 12:22:53;;;;;;;6.05;3.67;;;;;;;;;;4961164;28;20046;-72
2023/06/18 12:25:21;;;;;;;5.63;3.70;;;;;;;;;;4958722;28;20035;-72
2023/06/18 12:27:48;;;;;;;5.68;3.70;;;;;;;;;;4955990;29;20495;-72
2023/06/18 12:30:13;;;;;;;5.80;3.63;;;;;;;;;;4956727;29;20019;-72
2023/06/18 12:32:39;;;;;;;5.15;3.47;;;;;;;;;;4956962;29;20469;-72
2023/06/18 12:35:14;;;;;;;6.30;3.50;;;;;;;;;;4956920;29;20019;-73
2023/06/18 12:37:41;;;;;;;5.88;3.80;;;;;;;;;;4954485;29;20015;-72
2023/06/18 12:40:18;;;;;;;7.40;4.03;;;;;;;;;;4955729;28;20035;-72
2023/06/18 12:42:44;;;;;;;5.25;3.88;;;;;;;;;;4952541;29;20082;-72
2023/06/18 12:45:09;;;;;;;7.28;4.30;;;;;;;;;;4956437;29;20027;-72
2023/06/18 12:47:39;;;;;;;6.90;3.95;;;;;;;;;;4956952;29;20088;-71
2023/06/18 12:50:06;;;;;;;7.50;4.00;;;;;;;;;;4957075;29;20478;-72
2023/06/18 12:52:36;;;;;;;5.80;3.60;;;;;;;;;;4955339;29;20517;-72
2023/06/18 12:55:02;;;;;;;;;;;;;;;;;;4957096;29;20054;-71
2023/06/18 12:57:28;;;;;;;5.75;3.50;;;;;;;;;;4956619;29;19911;-72
2023/06/18 12:59:55;;;;;;;5.00;3.42;;;;;;;;;;4955225;29;20389;-72
2023/06/18 13:02:20;;;;;;;7.28;3.67;;;;;;;;;;4956476;29;20474;-72
2023/06/18 13:04:46;;;;;;;7.20;4.10;;;;;;;;;;4955649;29;20031;-71
2023/06/18 13:07:11;;;;;;;6.70;3.72;;;;;;;;;;4953563;29;20027;-71
2023/06/18 13:09:37;;;;;;;6.93;3.67;;;;;;;;;;4955084;29;20023;-72
2023/06/18 13:12:03;;;;;;;7.07;4.00;;;;;;;;;;4955601;29;20055;-72
2023/06/18 13:14:28;;;;;;;7.20;4.10;;;;;;;;;;4954363;29;20524;-71
2023/06/18 13:16:53;;;;;;;5.60;3.70;;;;;;;;;;4956281;29;20034;-72
2023/06/18 13:19:18;;;;;;;6.88;4.05;;;;;;;;;;4956462;29;20023;-72
2023/06/18 13:21:44;;;;;;;7.63;4.00;;;;;;;;;;4955099;29;20071;-72
2023/06/18 13:24:09;;;;;;;6.15;3.58;;;;;;;;;;4955991;29;20484;-72
2023/06/18 13:26:35;;;;;;;5.63;3.83;;;;;;;;;;4955488;29;20520;-71
2023/06/18 13:29:01;;;;;;;6.53;3.60;;;;;;;;;;4955050;29;20027;-72
2023/06/18 13:31:26;;;;;;;5.55;3.47;;;;;;;;;;4962573;28;20469;-71
2023/06/18 13:33:51;;;;;;;6.35;3.88;;;;;;;;;;4954432;29;20541;-71
2023/06/18 13:36:17;;;;;;;7.28;3.67;;;;;;;;;;4955191;29;20038;-71
2023/06/18 13:38:42;;;;;;;6.05;3.67;;;;;;;;;;4954923;29;20034;-71
2023/06/18 13:41:08;;;;;;;6.05;3.63;;;;;;;;;;4953248;29;20034;-72
2023/06/18 13:43:34;;;;;;;7.07;3.58;;;;;;;;;;4954596;29;20015;-71
2023/06/18 13:46:00;;;;;;;6.30;3.90;;;;;;;;;;4954758;29;20030;-72
2023/06/18 13:48:25;;;;;;;5.60;3.30;;;;;;;;;;4961840;28;20014;-72
2023/06/18 13:50:50;;;;;;;5.53;3.78;;;;;;;;;;4967519;28;20178;-71
2023/06/18 13:53:15;;;;;;;5.28;3.50;;;;;;;;;;4955852;29;20483;-72
2023/06/18 13:55:41;;;;;;;7.38;3.70;;;;;;;;;;4955494;29;20102;-71
2023/06/18 13:58:06;;;;;;;6.13;3.50;;;;;;;;;;4955288;29;20027;-71
2023/06/18 14:00:31;;;;;;;5.10;3.45;;;;;;;;;;4955433;29;20024;-71
2023/06/18 14:02:57;;;;;;;6.95;3.45;;;;;;;;;;4955143;29;20098;-71
2023/06/18 14:05:22;;;;;;;5.25;3.80;;;;;;;;;;4955376;29;20030;-71
2023/06/18 14:07:47;;;;;;;5.68;3.97;;;;;;;;;;4954645;29;20045;-71
2023/06/18 14:10:12;;;;;;;7.38;3.70;;;;;;;;;;4955587;29;20111;-70
2023/06/18 14:12:38;;;;;;;5.72;3.92;;;;;;;;;;4955525;29;20421;-71
2023/06/18 14:15:04;;;;;;;5.97;3.92;;;;;;;;;;4955527;29;20024;-71
2023/06/18 14:17:29;;;;;;;5.82;4.00;;;;;;;;;;4954681;28;20073;-71
2023/06/18 14:19:56;;;;;;;6.78;3.92;;;;;;;;;;4955404;29;20031;-70
2023/06/18 14:22:21;;;;;;;6.78;3.83;;;;;;;;;;4954217;29;20030;-70